sensor_id;sensor_type;location;lat;lon;timestamp;P1;durP1;ratioP1;P2;durP2;ratioP2
57301;SDS011;43149;50.974;18.224;2024-01-06T00:08:54;108.90;;;35.20;;
57301;SDS011;43149;50.974;18.224;2024-01-06T00:18:39;125.80;;;45.90;;
57301;SDS011;43149;50.974;18.224;2024-01-06T00:28:22;80.80;;;35.90;;
57301;SDS011;43149;50.974;18.224;2024-01-06T00:38:05;47.70;;;15.30;;
57301;SDS011;43149;50.974;18.224;2024-01-06T00:47:49;115.20;;;38.10;;
57301;SDS011;43149;50.974;18.224;2024-01-06T00:57:33;49.00;;;24.90;;
57301;SDS011;43149;50.974;18.224;2024-01-06T01:02:25;93.80;;;43.90;;
57301;SDS011;43149;50.974;18.224;2024-01-06T01:12:09;87.20;;;33.50;;
57301;SDS011;43149;50.974;18.224;2024-01-06T01:21:52;77.40;;;28.60;;
57301;SDS011;43149;50.974;18.224;2024-01-06T01:31:42;69.90;;;28.80;;
57301;SDS011;43149;50.974;18.224;2024-01-06T01:41:25;77.70;;;33.40;;
57301;SDS011;43149;50.974;18.224;2024-01-06T01:51:20;66.40;;;30.70;;
57301;SDS011;43149;50.974;18.224;2024-01-06T02:01:06;72.50;;;26.60;;
57301;SDS011;43149;50.974;18.224;2024-01-06T02:10:51;82.60;;;34.80;;
57301;SDS011;43149;50.974;18.224;2024-01-06T02:20:36;77.70;;;31.00;;
57301;SDS011;43149;50.974;18.224;2024-01-06T02:30:20;78.30;;;30.70;;
57301;SDS011;43149;50.974;18.224;2024-01-06T02:40:03;66.00;;;30.10;;
57301;SDS011;43149;50.974;18.224;2024-01-06T02:49:48;52.30;;;19.20;;
57301;SDS011;43149;50.974;18.224;2024-01-06T02:59:32;102.40;;;31.20;;
57301;SDS011;43149;50.974;18.224;2024-01-06T03:09:18;97.40;;;35.70;;
57301;SDS011;43149;50.974;18.224;2024-01-06T03:19:02;84.30;;;34.70;;
57301;SDS011;43149;50.974;18.224;2024-01-06T03:28:47;97.70;;;35.60;;
57301;SDS011;43149;50.974;18.224;2024-01-06T03:38:33;82.20;;;32.00;;
57301;SDS011;43149;50.974;18.224;2024-01-06T03:48:17;71.70;;;27.30;;
57301;SDS011;43149;50.974;18.224;2024-01-06T03:58:00;73.70;;;25.70;;
57301;SDS011;43149;50.974;18.224;2024-01-06T04:07:44;70.50;;;29.80;;
57301;SDS011;43149;50.974;18.224;2024-01-06T04:17:27;69.60;;;27.30;;
57301;SDS011;43149;50.974;18.224;2024-01-06T04:27:10;63.50;;;26.80;;
57301;SDS011;43149;50.974;18.224;2024-01-06T04:36:53;61.90;;;24.50;;
57301;SDS011;43149;50.974;18.224;2024-01-06T04:46:36;46.40;;;25.10;;
57301;SDS011;43149;50.974;18.224;2024-01-06T04:56:19;72.60;;;26.80;;
57301;SDS011;43149;50.974;18.224;2024-01-06T05:01:10;68.30;;;33.00;;
57301;SDS011;43149;50.974;18.224;2024-01-06T05:10:56;44.20;;;19.30;;
57301;SDS011;43149;50.974;18.224;2024-01-06T05:20:40;60.80;;;23.20;;
57301;SDS011;43149;50.974;18.224;2024-01-06T05:30:26;42.20;;;21.40;;
57301;SDS011;43149;50.974;18.224;2024-01-06T05:40:09;57.60;;;21.50;;
57301;SDS011;43149;50.974;18.224;2024-01-06T05:57:09;45.90;;;19.20;;
57301;SDS011;43149;50.974;18.224;2024-01-06T06:06:52;51.30;;;19.70;;
57301;SDS011;43149;50.974;18.224;2024-01-06T06:16:38;49.40;;;23.10;;
57301;SDS011;43149;50.974;18.224;2024-01-06T06:26:21;36.30;;;19.10;;
57301;SDS011;43149;50.974;18.224;2024-01-06T06:36:04;32.40;;;20.10;;
57301;SDS011;43149;50.974;18.224;2024-01-06T06:45:49;41.10;;;19.60;;
57301;SDS011;43149;50.974;18.224;2024-01-06T06:53:07;58.70;;;29.30;;
57301;SDS011;43149;50.974;18.224;2024-01-06T07:02:51;41.10;;;17.20;;
57301;SDS011;43149;50.974;18.224;2024-01-06T07:12:37;50.80;;;16.90;;
57301;SDS011;43149;50.974;18.224;2024-01-06T07:22:21;53.10;;;18.30;;
57301;SDS011;43149;50.974;18.224;2024-01-06T07:32:04;58.90;;;21.00;;
57301;SDS011;43149;50.974;18.224;2024-01-06T07:41:49;91.50;;;33.90;;
57301;SDS011;43149;50.974;18.224;2024-01-06T07:51:35;41.70;;;22.70;;
57301;SDS011;43149;50.974;18.224;2024-01-06T08:01:18;80.60;;;38.70;;
57301;SDS011;43149;50.974;18.224;2024-01-06T08:11:01;52.60;;;17.10;;
57301;SDS011;43149;50.974;18.224;2024-01-06T08:15:53;66.80;;;31.90;;
57301;SDS011;43149;50.974;18.224;2024-01-06T08:25:38;30.70;;;17.10;;
57301;SDS011;43149;50.974;18.224;2024-01-06T08:35:21;42.20;;;17.00;;
57301;SDS011;43149;50.974;18.224;2024-01-06T08:45:04;46.40;;;18.30;;
57301;SDS011;43149;50.974;18.224;2024-01-06T08:54:47;31.50;;;17.50;;
57301;SDS011;43149;50.974;18.224;2024-01-06T09:04:33;36.70;;;15.40;;
57301;SDS011;43149;50.974;18.224;2024-01-06T09:14:17;56.40;;;19.70;;
57301;SDS011;43149;50.974;18.224;2024-01-06T09:24:01;31.50;;;15.40;;
57301;SDS011;43149;50.974;18.224;2024-01-06T09:31:25;43.40;;;21.00;;
57301;SDS011;43149;50.974;18.224;2024-01-06T09:41:09;24.00;;;11.10;;
57301;SDS011;43149;50.974;18.224;2024-01-06T09:51:00;17.60;;;7.80;;
57301;SDS011;43149;50.974;18.224;2024-01-06T10:00:55;27.30;;;15.10;;
57301;SDS011;43149;50.974;18.224;2024-01-06T10:10:39;28.40;;;14.30;;
57301;SDS011;43149;50.974;18.224;2024-01-06T10:20:22;37.30;;;19.60;;
57301;SDS011;43149;50.974;18.224;2024-01-06T10:30:07;48.70;;;19.50;;
57301;SDS011;43149;50.974;18.224;2024-01-06T10:40:07;62.50;;;24.90;;
57301;SDS011;43149;50.974;18.224;2024-01-06T10:50:02;34.10;;;19.20;;
57301;SDS011;43149;50.974;18.224;2024-01-06T10:59:48;56.00;;;22.20;;
57301;SDS011;43149;50.974;18.224;2024-01-06T11:09:36;41.50;;;22.20;;
57301;SDS011;43149;50.974;18.224;2024-01-06T11:29:35;44.40;;;10.80;;
57301;SDS011;43149;50.974;18.224;2024-01-06T11:40:02;59.60;;;28.00;;
57301;SDS011;43149;50.974;18.224;2024-01-06T11:49:56;79.60;;;30.30;;
57301;SDS011;43149;50.974;18.224;2024-01-06T11:59:50;70.20;;;33.70;;
57301;SDS011;43149;50.974;18.224;2024-01-06T12:09:38;73.50;;;30.30;;
57301;SDS011;43149;50.974;18.224;2024-01-06T12:19:29;86.10;;;35.10;;
57301;SDS011;43149;50.974;18.224;2024-01-06T12:29:17;91.40;;;36.60;;
57301;SDS011;43149;50.974;18.224;2024-01-06T12:39:05;56.80;;;23.00;;
57301;SDS011;43149;50.974;18.224;2024-01-06T12:48:53;59.20;;;23.60;;
57301;SDS011;43149;50.974;18.224;2024-01-06T12:58:36;47.30;;;24.10;;
57301;SDS011;43149;50.974;18.224;2024-01-06T13:08:22;58.00;;;28.80;;
57301;SDS011;43149;50.974;18.224;2024-01-06T13:18:05;68.70;;;26.30;;
57301;SDS011;43149;50.974;18.224;2024-01-06T13:27:48;49.30;;;23.00;;
57301;SDS011;43149;50.974;18.224;2024-01-06T13:37:32;55.80;;;24.70;;
57301;SDS011;43149;50.974;18.224;2024-01-06T13:47:15;60.70;;;24.00;;
57301;SDS011;43149;50.974;18.224;2024-01-06T13:57:01;48.30;;;23.50;;
57301;SDS011;43149;50.974;18.224;2024-01-06T14:06:45;57.10;;;24.00;;
57301;SDS011;43149;50.974;18.224;2024-01-06T14:16:31;36.90;;;16.40;;
57301;SDS011;43149;50.974;18.224;2024-01-06T14:26:18;37.40;;;18.90;;
57301;SDS011;43149;50.974;18.224;2024-01-06T14:36:03;56.50;;;24.50;;
57301;SDS011;43149;50.974;18.224;2024-01-06T14:45:50;50.70;;;24.80;;
57301;SDS011;43149;50.974;18.224;2024-01-06T14:55:36;150.10;;;56.70;;
57301;SDS011;43149;50.974;18.224;2024-01-06T15:05:22;129.10;;;54.30;;
57301;SDS011;43149;50.974;18.224;2024-01-06T15:15:11;91.70;;;27.80;;
57301;SDS011;43149;50.974;18.224;2024-01-06T15:24:56;54.00;;;18.10;;
57301;SDS011;43149;50.974;18.224;2024-01-06T15:34:40;20.80;;;14.20;;
57301;SDS011;43149;50.974;18.224;2024-01-06T15:44:23;42.10;;;23.60;;
57301;SDS011;43149;50.974;18.224;2024-01-06T15:54:06;61.30;;;25.90;;
57301;SDS011;43149;50.974;18.224;2024-01-06T16:03:49;17.90;;;9.10;;
57301;SDS011;43149;50.974;18.224;2024-01-06T16:13:32;29.70;;;17.30;;
57301;SDS011;43149;50.974;18.224;2024-01-06T16:23:14;63.00;;;26.10;;
57301;SDS011;43149;50.974;18.224;2024-01-06T16:33:04;32.70;;;15.20;;
57301;SDS011;43149;50.974;18.224;2024-01-06T16:42:59;50.00;;;23.80;;
57301;SDS011;43149;50.974;18.224;2024-01-06T16:52:44;58.20;;;22.40;;
57301;SDS011;43149;50.974;18.224;2024-01-06T17:00:01;66.60;;;39.70;;
57301;SDS011;43149;50.974;18.224;2024-01-06T17:09:46;44.60;;;23.60;;
57301;SDS011;43149;50.974;18.224;2024-01-06T17:19:32;51.20;;;24.50;;
57301;SDS011;43149;50.974;18.224;2024-01-06T17:29:19;44.30;;;17.00;;
57301;SDS011;43149;50.974;18.224;2024-01-06T17:39:02;40.10;;;24.50;;
57301;SDS011;43149;50.974;18.224;2024-01-06T17:48:54;26.30;;;11.00;;
57301;SDS011;43149;50.974;18.224;2024-01-06T17:58:44;73.10;;;29.90;;
57301;SDS011;43149;50.974;18.224;2024-01-06T18:08:28;36.50;;;17.40;;
57301;SDS011;43149;50.974;18.224;2024-01-06T18:18:11;52.70;;;25.20;;
57301;SDS011;43149;50.974;18.224;2024-01-06T18:27:56;60.50;;;30.40;;
57301;SDS011;43149;50.974;18.224;2024-01-06T18:37:39;45.60;;;26.10;;
57301;SDS011;43149;50.974;18.224;2024-01-06T18:47:24;38.10;;;21.00;;
57301;SDS011;43149;50.974;18.224;2024-01-06T18:52:16;53.00;;;32.60;;
57301;SDS011;43149;50.974;18.224;2024-01-06T19:02:07;29.80;;;16.10;;
57301;SDS011;43149;50.974;18.224;2024-01-06T19:11:59;27.30;;;19.70;;
57301;SDS011;43149;50.974;18.224;2024-01-06T19:21:45;39.90;;;22.80;;
57301;SDS011;43149;50.974;18.224;2024-01-06T19:31:31;31.40;;;21.60;;
57301;SDS011;43149;50.974;18.224;2024-01-06T19:41:16;20.10;;;12.00;;
57301;SDS011;43149;50.974;18.224;2024-01-06T19:51:01;27.70;;;16.40;;
57301;SDS011;43149;50.974;18.224;2024-01-06T20:00:47;20.50;;;12.50;;
57301;SDS011;43149;50.974;18.224;2024-01-06T20:10:33;25.10;;;17.00;;
57301;SDS011;43149;50.974;18.224;2024-01-06T20:20:18;44.70;;;20.70;;
57301;SDS011;43149;50.974;18.224;2024-01-06T20:30:03;19.60;;;12.80;;
57301;SDS011;43149;50.974;18.224;2024-01-06T20:39:50;27.00;;;16.40;;
57301;SDS011;43149;50.974;18.224;2024-01-06T20:49:34;42.30;;;18.00;;
57301;SDS011;43149;50.974;18.224;2024-01-06T20:59:18;20.80;;;11.60;;
57301;SDS011;43149;50.974;18.224;2024-01-06T21:09:02;28.50;;;13.10;;
57301;SDS011;43149;50.974;18.224;2024-01-06T21:18:46;19.60;;;11.30;;
57301;SDS011;43149;50.974;18.224;2024-01-06T21:28:35;24.10;;;15.20;;
57301;SDS011;43149;50.974;18.224;2024-01-06T21:38:18;19.10;;;11.60;;
57301;SDS011;43149;50.974;18.224;2024-01-06T21:48:02;22.90;;;13.00;;
57301;SDS011;43149;50.974;18.224;2024-01-06T21:57:49;25.60;;;14.40;;
57301;SDS011;43149;50.974;18.224;2024-01-06T22:07:37;13.10;;;7.40;;
57301;SDS011;43149;50.974;18.224;2024-01-06T22:17:20;28.60;;;14.60;;
57301;SDS011;43149;50.974;18.224;2024-01-06T22:27:06;15.10;;;11.10;;
57301;SDS011;43149;50.974;18.224;2024-01-06T22:36:49;21.10;;;11.60;;
57301;SDS011;43149;50.974;18.224;2024-01-06T22:46:36;15.10;;;10.40;;
57301;SDS011;43149;50.974;18.224;2024-01-06T22:56:21;22.50;;;9.70;;
57301;SDS011;43149;50.974;18.224;2024-01-06T23:06:06;19.20;;;11.80;;
57301;SDS011;43149;50.974;18.224;2024-01-06T23:15:50;15.60;;;9.20;;
57301;SDS011;43149;50.974;18.224;2024-01-06T23:25:35;21.40;;;11.90;;
57301;SDS011;43149;50.974;18.224;2024-01-06T23:35:18;16.20;;;9.80;;
57301;SDS011;43149;50.974;18.224;2024-01-06T23:45:08;16.00;;;8.90;;
57301;SDS011;43149;50.974;18.224;2024-01-06T23:54:54;12.20;;;7.40;;
